createdAt,value
2023-05-16T00:00:42.000Z,69.67
2023-05-16T00:03:12.375Z,69.39
2023-05-16T00:05:39.455Z,68.19
2023-05-16T00:08:06.898Z,69.72
2023-05-16T00:10:33.963Z,69.31
2023-05-16T00:13:02.217Z,69.02
2023-05-16T00:15:32.665Z,69.18
2023-05-16T00:18:01.947Z,69.03
2023-05-16T00:20:29.896Z,68.80
2023-05-16T00:23:01.458Z,69.72
2023-05-16T00:25:29.082Z,70.32
2023-05-16T00:27:56.050Z,69.54
2023-05-16T00:30:23.067Z,68.93
2023-05-16T00:32:50.028Z,68.51
2023-05-16T00:35:16.821Z,69.02
2023-05-16T00:37:43.840Z,68.60
2023-05-16T00:40:11.116Z,68.20
2023-05-16T00:42:39.116Z,69.01
2023-05-16T00:45:07.200Z,68.74
2023-05-16T00:47:34.208Z,68.79
2023-05-16T00:50:02.242Z,69.40
2023-05-16T00:52:29.340Z,68.97
2023-05-16T00:54:56.403Z,69.34
2023-05-16T00:57:23.971Z,69.31
2023-05-16T00:59:51.574Z,69.68
2023-05-16T01:02:18.523Z,70.26
2023-05-16T01:04:48.528Z,71.43
2023-05-16T01:07:15.671Z,73.03
2023-05-16T01:09:42.774Z,73.98
2023-05-16T01:12:28.444Z,74.71
2023-05-16T01:15:09.092Z,74.50
2023-05-16T01:18:12.781Z,74.17
2023-05-16T01:21:04.247Z,73.91
2023-05-16T01:23:59.308Z,74.23
2023-05-16T01:26:28.449Z,75.16
2023-05-16T01:28:56.230Z,74.46
2023-05-16T01:31:24.480Z,73.81
2023-05-16T01:33:51.643Z,73.48
2023-05-16T01:36:47.945Z,73.00
2023-05-16T01:39:22.465Z,71.45
2023-05-16T01:42:27.618Z,71.67
2023-05-16T01:45:07.421Z,71.17
2023-05-16T01:47:40.491Z,70.51
2023-05-16T01:50:10.247Z,70.73
2023-05-16T01:52:43.481Z,70.60
2023-05-16T01:55:12.516Z,71.75
2023-05-16T01:57:41.281Z,70.73
2023-05-16T02:00:09.134Z,70.16
2023-05-16T02:02:36.087Z,69.56
2023-05-16T02:05:03.069Z,69.34
2023-05-16T02:07:30.326Z,69.51
2023-05-16T02:09:57.212Z,69.07
2023-05-16T02:12:25.525Z,69.05
2023-05-16T02:14:52.525Z,68.13
2023-05-16T02:17:19.517Z,67.70
2023-05-16T02:19:46.512Z,67.37
2023-05-16T02:22:13.368Z,66.77
2023-05-16T02:24:40.773Z,66.64
2023-05-16T02:27:07.685Z,66.17
2023-05-16T02:29:34.671Z,66.30
2023-05-16T02:32:01.571Z,66.84
2023-05-16T02:34:28.645Z,67.80
2023-05-16T02:36:55.486Z,67.87
2023-05-16T02:39:22.321Z,67.95
2023-05-16T02:41:49.248Z,67.06
2023-05-16T02:44:16.416Z,66.86
2023-05-16T02:46:43.600Z,67.26
2023-05-16T02:49:10.702Z,67.62
2023-05-16T02:51:37.517Z,67.69
2023-05-16T02:54:04.759Z,66.97
2023-05-16T02:56:31.572Z,67.36
2023-05-16T02:58:58.570Z,67.05
2023-05-16T03:01:25.392Z,68.12
2023-05-16T03:03:52.576Z,68.91
2023-05-16T03:06:19.575Z,69.33
2023-05-16T03:08:46.738Z,69.81
2023-05-16T03:11:14.452Z,69.34
2023-05-16T03:13:41.956Z,69.11
2023-05-16T03:16:08.939Z,68.84
2023-05-16T03:18:36.097Z,68.77
2023-05-16T03:21:03.528Z,68.78
2023-05-16T03:23:30.484Z,68.32
2023-05-16T03:25:57.542Z,68.01
2023-05-16T03:28:24.636Z,67.73
2023-05-16T03:30:51.534Z,67.81
2023-05-16T03:33:19.334Z,67.24
2023-05-16T03:35:47.221Z,67.90
2023-05-16T03:38:17.520Z,69.79
2023-05-16T03:40:44.808Z,69.02
2023-05-16T03:43:11.647Z,69.15
2023-05-16T03:45:38.510Z,68.58
2023-05-16T03:48:05.731Z,68.25
2023-05-16T03:50:32.862Z,67.85
2023-05-16T03:52:59.772Z,68.08
2023-05-16T03:55:26.854Z,68.44
2023-05-16T03:57:54.355Z,68.48
2023-05-16T04:00:21.649Z,67.92
2023-05-16T04:02:48.864Z,67.65
2023-05-16T04:05:15.961Z,67.55
2023-05-16T04:07:42.980Z,68.02
2023-05-16T04:10:10.840Z,67.57
2023-05-16T04:12:38.262Z,67.58
2023-05-16T04:15:06.427Z,67.53
2023-05-16T04:17:33.940Z,67.12
2023-05-16T04:20:01.195Z,65.74
2023-05-16T04:22:28.151Z,65.40
2023-05-16T04:24:55.279Z,65.19
2023-05-16T04:27:22.218Z,63.85
2023-05-16T04:29:49.635Z,63.22
2023-05-16T04:32:17.586Z,63.20
2023-05-16T04:34:46.939Z,61.21
2023-05-16T04:37:14.362Z,59.02
2023-05-16T04:39:46.073Z,55.54
2023-05-16T04:42:13.211Z,54.25
2023-05-16T04:44:40.032Z,54.32
2023-05-16T04:47:07.438Z,51.16
2023-05-16T04:49:34.395Z,49.57
2023-05-16T04:52:02.283Z,48.62
2023-05-16T04:54:29.019Z,49.23
2023-05-16T04:56:56.203Z,49.74
2023-05-16T04:59:23.939Z,51.85
2023-05-16T05:01:50.953Z,52.43
2023-05-16T05:04:18.062Z,55.19
2023-05-16T05:06:45.115Z,55.06
2023-05-16T05:09:11.858Z,56.36
2023-05-16T05:11:38.667Z,56.36
2023-05-16T05:14:05.855Z,53.62
2023-05-16T05:16:33.418Z,53.49
2023-05-16T05:19:00.700Z,51.22
2023-05-16T05:21:27.802Z,47.29
2023-05-16T05:23:54.579Z,48.09
2023-05-16T05:26:22.694Z,49.65
2023-05-16T05:29:00.980Z,50.25
2023-05-16T05:31:31.456Z,49.42
2023-05-16T05:33:58.387Z,44.01
2023-05-16T05:36:25.582Z,39.60
2023-05-16T05:38:52.386Z,37.38
2023-05-16T05:41:19.361Z,39.62
2023-05-16T05:43:46.655Z,43.55
2023-05-16T05:46:13.849Z,44.94
2023-05-16T05:48:41.188Z,47.28
2023-05-16T05:51:08.030Z,50.63
2023-05-16T05:53:35.046Z,48.07
2023-05-16T05:56:01.989Z,48.00
2023-05-16T05:58:29.160Z,48.87
2023-05-16T06:00:56.306Z,48.64
2023-05-16T06:03:23.281Z,45.69
2023-05-16T06:05:50.350Z,41.77
2023-05-16T06:08:23.080Z,41.42
2023-05-16T06:10:50.493Z,38.30
2023-05-16T06:13:17.565Z,32.77
2023-05-16T06:15:44.386Z,29.51
2023-05-16T06:18:11.228Z,27.60
2023-05-16T06:20:38.041Z,24.83
2023-05-16T06:23:05.047Z,24.79
2023-05-16T06:25:32.491Z,23.08
2023-05-16T06:27:59.767Z,22.49
2023-05-16T06:30:26.680Z,20.71
2023-05-16T06:32:53.543Z,19.11
2023-05-16T06:35:20.843Z,18.53
2023-05-16T06:37:47.916Z,23.83
2023-05-16T06:40:15.085Z,26.16
2023-05-16T06:42:42.238Z,26.51
2023-05-16T06:45:10.798Z,24.00
2023-05-16T06:47:37.901Z,23.53
2023-05-16T06:50:05.374Z,24.40
2023-05-16T06:52:32.261Z,24.31
2023-05-16T06:54:59.236Z,22.80
2023-05-16T06:57:26.489Z,22.74
2023-05-16T06:59:53.485Z,21.02
2023-05-16T07:02:20.486Z,19.76
2023-05-16T07:04:48.108Z,18.04
2023-05-16T07:07:15.578Z,16.73
2023-05-16T07:09:42.543Z,15.62
2023-05-16T07:12:10.037Z,16.38
2023-05-16T07:14:37.023Z,18.06
2023-05-16T07:17:04.644Z,19.95
2023-05-16T07:19:31.827Z,19.22
2023-05-16T07:21:58.782Z,20.38
2023-05-16T07:24:25.783Z,21.64
2023-05-16T07:26:52.761Z,24.11
2023-05-16T07:29:20.172Z,26.86
2023-05-16T07:31:47.233Z,23.01
2023-05-16T07:34:14.152Z,17.48
2023-05-16T07:36:41.638Z,15.83
2023-05-16T07:39:08.573Z,14.74
2023-05-16T07:41:35.918Z,16.88
2023-05-16T07:44:03.309Z,19.13
2023-05-16T07:46:30.506Z,17.13
2023-05-16T07:48:57.508Z,14.40
2023-05-16T07:51:24.719Z,13.99
2023-05-16T07:53:52.319Z,17.08
2023-05-16T07:56:19.442Z,23.85
2023-05-16T07:58:49.233Z,28.01
2023-05-16T08:01:17.287Z,30.62
2023-05-16T08:03:44.362Z,26.23
2023-05-16T08:06:12.204Z,18.30
2023-05-16T08:08:39.128Z,15.56
2023-05-16T08:11:06.091Z,16.80
2023-05-16T08:13:33.002Z,15.53
2023-05-16T08:16:00.024Z,13.17
2023-05-16T08:18:27.092Z,10.75
2023-05-16T08:20:54.009Z,10.13
2023-05-16T08:23:21.922Z,10.54
2023-05-16T08:25:49.062Z,10.71
2023-05-16T08:28:16.266Z,10.25
2023-05-16T08:30:44.562Z,10.88
2023-05-16T08:33:13.003Z,8.67
2023-05-16T08:35:44.309Z,9.81
2023-05-16T08:38:11.619Z,9.51
2023-05-16T08:40:38.636Z,12.28
2023-05-16T08:43:05.783Z,11.84
2023-05-16T08:45:32.781Z,10.74
2023-05-16T08:48:01.608Z,15.06
2023-05-16T08:50:32.907Z,17.12
2023-05-16T08:53:07.370Z,13.90
2023-05-16T08:55:36.055Z,11.94
2023-05-16T08:58:03.988Z,13.51
2023-05-16T09:00:31.959Z,18.02
2023-05-16T09:02:59.766Z,23.31
2023-05-16T09:05:30.505Z,20.01
2023-05-16T09:07:57.601Z,13.66
2023-05-16T09:10:24.809Z,11.11
2023-05-16T09:12:52.063Z,10.21
2023-05-16T09:15:20.931Z,11.02
2023-05-16T09:17:49.344Z,10.52
2023-05-16T09:20:18.666Z,9.91
2023-05-16T09:22:53.315Z,8.98
2023-05-16T09:25:30.420Z,8.58
2023-05-16T09:27:59.870Z,8.88
2023-05-16T09:30:35.167Z,12.46
2023-05-16T09:33:02.741Z,17.29
2023-05-16T09:37:59.899Z,23.74
2023-05-16T09:40:26.766Z,18.01
2023-05-16T09:43:06.073Z,20.01
2023-05-16T09:45:34.478Z,23.09
2023-05-16T09:48:08.800Z,27.05
2023-05-16T09:50:37.968Z,29.16
2023-05-16T09:53:05.776Z,30.07
2023-05-16T09:55:33.242Z,28.27
2023-05-16T09:58:00.281Z,26.07
2023-05-16T10:00:32.542Z,26.01
2023-05-16T10:03:04.323Z,24.87
2023-05-16T10:05:33.083Z,17.14
2023-05-16T10:08:02.906Z,18.97
2023-05-16T10:10:30.464Z,21.86
2023-05-16T10:13:01.747Z,19.47
2023-05-16T10:15:30.359Z,14.22
2023-05-16T10:18:00.820Z,13.50
2023-05-16T10:20:28.524Z,17.49
2023-05-16T10:22:58.661Z,21.34
2023-05-16T10:25:39.501Z,26.25
2023-05-16T10:28:09.027Z,29.61
2023-05-16T10:30:37.723Z,30.53
2023-05-16T10:33:05.365Z,27.36
2023-05-16T10:35:33.349Z,25.61
2023-05-16T10:38:01.942Z,34.78
2023-05-16T10:40:31.010Z,41.92
2023-05-16T10:43:00.013Z,40.80
2023-05-16T10:45:27.809Z,40.12
2023-05-16T10:47:56.766Z,37.04
2023-05-16T10:50:44.014Z,35.25
2023-05-16T10:53:14.528Z,32.15
2023-05-16T10:56:00.574Z,31.60
2023-05-16T10:58:33.506Z,30.38
2023-05-16T11:01:19.316Z,31.17
2023-05-16T11:04:00.897Z,29.83
2023-05-16T11:06:41.351Z,27.60
2023-05-16T11:09:11.484Z,18.67
2023-05-16T11:11:45.606Z,14.02
2023-05-16T11:14:27.108Z,12.63
2023-05-16T11:17:12.563Z,11.76
2023-05-16T11:19:48.162Z,10.74
2023-05-16T11:22:23.968Z,9.65
2023-05-16T11:24:54.266Z,10.42
2023-05-16T11:27:28.122Z,12.33
2023-05-16T11:30:02.095Z,13.04
2023-05-16T11:32:31.301Z,11.58
2023-05-16T11:34:58.662Z,12.06
2023-05-16T11:37:28.470Z,12.47
2023-05-16T11:40:00.479Z,13.53
2023-05-16T11:42:39.792Z,14.74
2023-05-16T11:45:12.508Z,14.98
2023-05-16T11:47:40.891Z,19.17
2023-05-16T11:50:13.341Z,26.60
2023-05-16T11:52:42.906Z,35.26
2023-05-16T11:55:11.544Z,40.04
2023-05-16T11:57:39.543Z,45.40
2023-05-16T12:00:15.407Z,45.44
2023-05-16T12:02:42.413Z,43.26
2023-05-16T12:05:10.796Z,45.42
2023-05-16T12:07:38.570Z,45.00
2023-05-16T12:10:09.847Z,47.44
2023-05-16T12:12:38.425Z,52.98
2023-05-16T12:15:07.283Z,56.20
2023-05-16T12:17:38.595Z,56.31
2023-05-16T12:20:06.974Z,56.93
2023-05-16T12:22:34.822Z,55.28
2023-05-16T12:25:39.480Z,56.13
2023-05-16T12:28:09.953Z,53.20
2023-05-16T12:30:41.708Z,56.11
2023-05-16T12:33:13.478Z,55.33
2023-05-16T12:35:46.040Z,53.26
2023-05-16T12:38:15.456Z,53.85
2023-05-16T12:40:43.942Z,57.45
2023-05-16T12:43:19.837Z,62.24
2023-05-16T12:45:57.583Z,57.88
2023-05-16T12:48:35.624Z,58.59
2023-05-16T12:51:17.535Z,53.15
2023-05-16T12:54:01.601Z,50.40
2023-05-16T12:56:36.398Z,48.30
2023-05-16T12:59:04.058Z,48.50
2023-05-16T13:01:31.332Z,49.35
2023-05-16T13:03:58.467Z,50.02
2023-05-16T13:06:25.689Z,51.13
2023-05-16T13:08:52.762Z,53.12
2023-05-16T13:11:19.870Z,52.88
2023-05-16T13:13:47.057Z,50.07
2023-05-16T13:16:13.931Z,52.39
2023-05-16T13:18:41.173Z,51.12
2023-05-16T13:21:08.226Z,54.29
2023-05-16T13:23:35.215Z,53.65
2023-05-16T13:26:02.084Z,51.17
2023-05-16T13:28:29.094Z,49.01
2023-05-16T13:30:56.536Z,47.49
2023-05-16T13:33:25.130Z,48.26
2023-05-16T13:35:52.216Z,49.17
2023-05-16T13:38:19.062Z,49.19
2023-05-16T13:40:45.980Z,49.75
2023-05-16T13:43:15.775Z,50.36
2023-05-16T13:45:44.479Z,49.25
2023-05-16T13:48:11.736Z,48.68
2023-05-16T13:50:44.065Z,48.51
2023-05-16T13:53:11.721Z,46.59
2023-05-16T13:55:38.933Z,44.85
2023-05-16T13:58:06.083Z,45.57
2023-05-16T14:00:44.309Z,45.81
2023-05-16T14:03:12.582Z,47.88
2023-05-16T14:05:39.980Z,47.20
2023-05-16T14:08:07.042Z,47.65
2023-05-16T14:10:34.003Z,45.43
2023-05-16T14:13:01.070Z,45.42
2023-05-16T14:15:28.448Z,42.49
2023-05-16T14:17:55.774Z,43.31
2023-05-16T14:20:23.280Z,43.46
2023-05-16T14:22:50.384Z,43.13
2023-05-16T14:25:17.697Z,44.43
2023-05-16T14:27:44.726Z,46.93
2023-05-16T14:30:12.707Z,48.99
2023-05-16T14:32:40.228Z,48.49
2023-05-16T14:35:07.543Z,47.80
2023-05-16T14:37:34.350Z,47.02
2023-05-16T14:40:01.223Z,47.32
2023-05-16T14:42:28.285Z,46.91
2023-05-16T14:44:55.174Z,47.43
2023-05-16T14:47:22.223Z,46.50
2023-05-16T14:49:49.182Z,46.32
2023-05-16T14:52:16.292Z,44.20
2023-05-16T14:54:43.396Z,42.82
2023-05-16T14:57:10.314Z,43.17
2023-05-16T14:59:37.257Z,42.39
2023-05-16T15:02:04.771Z,42.43
2023-05-16T15:04:33.043Z,43.31
2023-05-16T15:07:00.203Z,43.36
2023-05-16T15:09:27.366Z,46.16
2023-05-16T15:11:54.194Z,45.44
2023-05-16T15:14:21.250Z,46.13
2023-05-16T15:16:49.272Z,47.42
2023-05-16T15:19:16.409Z,51.51
2023-05-16T15:21:43.999Z,51.35
2023-05-16T15:24:12.506Z,48.86
2023-05-16T15:26:40.168Z,44.79
2023-05-16T15:29:07.225Z,44.07
2023-05-16T15:31:34.161Z,45.39
2023-05-16T15:34:01.177Z,45.37
2023-05-16T15:36:29.476Z,45.64
2023-05-16T15:38:56.541Z,45.69
2023-05-16T15:41:37.098Z,47.41
2023-05-16T15:44:10.938Z,46.38
2023-05-16T15:46:38.097Z,46.18
2023-05-16T15:49:05.333Z,46.97
2023-05-16T15:51:32.327Z,46.58
2023-05-16T15:53:59.315Z,48.44
2023-05-16T15:56:26.671Z,48.31
2023-05-16T15:58:57.152Z,46.82
2023-05-16T16:01:24.215Z,46.44
2023-05-16T16:03:51.848Z,47.79
2023-05-16T16:06:20.038Z,46.69
2023-05-16T16:08:46.849Z,47.28
2023-05-16T16:11:13.893Z,46.22
2023-05-16T16:13:40.978Z,47.82
2023-05-16T16:16:08.139Z,49.57
2023-05-16T16:18:35.076Z,49.27
2023-05-16T16:21:02.108Z,50.90
2023-05-16T16:23:29.076Z,50.55
2023-05-16T16:25:56.141Z,51.78
2023-05-16T16:28:23.418Z,51.59
2023-05-16T16:30:50.822Z,51.75
2023-05-16T16:33:17.833Z,51.42
2023-05-16T16:35:45.069Z,52.88
2023-05-16T16:38:12.102Z,55.39
2023-05-16T16:40:39.069Z,57.58
2023-05-16T16:43:07.344Z,61.43
2023-05-16T16:45:34.291Z,63.53
2023-05-16T16:48:01.317Z,66.26
2023-05-16T16:50:28.300Z,68.65
2023-05-16T16:52:55.450Z,69.72
2023-05-16T16:55:22.538Z,70.11
2023-05-16T16:57:51.760Z,71.34
2023-05-16T17:00:19.590Z,71.35
2023-05-16T17:02:46.567Z,72.87
2023-05-16T17:05:13.962Z,76.79
2023-05-16T17:07:40.966Z,76.21
2023-05-16T17:10:09.377Z,76.16
2023-05-16T17:12:38.058Z,77.88
2023-05-16T17:15:06.512Z,78.20
2023-05-16T17:17:33.758Z,77.30
2023-05-16T17:20:04.388Z,78.45
2023-05-16T17:22:31.680Z,77.92
2023-05-16T17:24:58.696Z,77.25
2023-05-16T17:27:25.920Z,76.47
2023-05-16T17:29:52.930Z,77.26
2023-05-16T17:32:21.602Z,74.96
2023-05-16T17:34:48.800Z,74.61
2023-05-16T17:37:15.984Z,74.58
2023-05-16T17:39:43.014Z,74.67
2023-05-16T17:42:11.331Z,75.71
2023-05-16T17:44:38.384Z,77.87
2023-05-16T17:47:05.342Z,78.40
2023-05-16T17:49:35.648Z,78.66
2023-05-16T17:52:02.941Z,79.96
2023-05-16T17:54:32.726Z,79.33
2023-05-16T17:57:00.806Z,80.26
2023-05-16T17:59:28.009Z,81.25
2023-05-16T18:01:56.385Z,80.19
2023-05-16T18:04:24.240Z,80.01
2023-05-16T18:06:54.875Z,80.29
2023-05-16T18:09:25.748Z,79.67
2023-05-16T18:11:52.950Z,80.46
2023-05-16T18:14:20.176Z,81.54
2023-05-16T18:16:47.274Z,80.64
2023-05-16T18:19:14.619Z,79.82
2023-05-16T18:21:44.428Z,80.43
2023-05-16T18:24:13.308Z,80.98
2023-05-16T18:26:40.401Z,80.45
2023-05-16T18:29:08.572Z,80.23
2023-05-16T18:31:35.762Z,79.70
2023-05-16T18:34:02.969Z,80.30
2023-05-16T18:36:29.967Z,80.74
2023-05-16T18:38:57.215Z,80.16
2023-05-16T18:41:24.179Z,80.70
2023-05-16T18:43:51.221Z,79.68
2023-05-16T18:46:18.122Z,79.73
2023-05-16T18:48:45.173Z,79.06
2023-05-16T18:51:14.093Z,80.29
2023-05-16T18:53:41.360Z,80.54
2023-05-16T18:56:09.828Z,81.02
2023-05-16T18:58:37.148Z,80.35
2023-05-16T19:01:04.413Z,78.94
2023-05-16T19:03:31.815Z,78.70
2023-05-16T19:05:59.008Z,79.28
2023-05-16T19:08:31.233Z,79.96
2023-05-16T19:11:04.161Z,80.36
2023-05-16T19:13:32.578Z,79.72
2023-05-16T19:15:59.503Z,80.36
2023-05-16T19:18:26.979Z,80.28
2023-05-16T19:20:54.140Z,80.42
2023-05-16T19:23:21.910Z,80.51
2023-05-16T19:25:49.269Z,82.48
2023-05-16T19:28:16.912Z,82.39
2023-05-16T19:30:44.318Z,83.25
2023-05-16T19:33:11.281Z,83.59
2023-05-16T19:35:38.706Z,83.14
2023-05-16T19:38:05.943Z,83.22
2023-05-16T19:40:34.580Z,83.12
2023-05-16T19:43:01.704Z,82.83
2023-05-16T19:45:28.914Z,82.85
2023-05-16T19:47:56.151Z,83.88
2023-05-16T19:50:23.204Z,83.27
2023-05-16T19:52:50.287Z,83.62
2023-05-16T19:55:17.202Z,84.31
2023-05-16T19:57:44.471Z,84.20
2023-05-16T20:00:12.083Z,84.95
2023-05-16T20:02:38.913Z,85.42
2023-05-16T20:05:06.825Z,85.23
2023-05-16T20:07:33.674Z,84.05
2023-05-16T20:10:01.203Z,84.50
2023-05-16T20:12:28.153Z,85.55
2023-05-16T20:14:55.112Z,86.12
2023-05-16T20:17:22.159Z,86.49
2023-05-16T20:19:49.300Z,86.61
2023-05-16T20:22:16.277Z,85.17
2023-05-16T20:24:43.686Z,85.82
2023-05-16T20:27:10.664Z,85.43
2023-05-16T20:29:37.908Z,85.35
2023-05-16T20:32:05.128Z,84.40
2023-05-16T20:34:32.154Z,84.86
2023-05-16T20:36:59.585Z,85.36
2023-05-16T20:39:26.444Z,85.70
2023-05-16T20:41:53.606Z,84.97
2023-05-16T20:44:21.115Z,85.46
2023-05-16T20:46:48.070Z,85.98
2023-05-16T20:49:15.243Z,84.69
2023-05-16T20:51:42.640Z,84.46
2023-05-16T20:54:10.865Z,84.75
2023-05-16T20:56:37.908Z,84.71
2023-05-16T20:59:04.891Z,84.76
2023-05-16T21:01:32.154Z,84.81
2023-05-16T21:03:59.235Z,84.30
2023-05-16T21:06:26.307Z,84.54
2023-05-16T21:08:53.382Z,84.83
2023-05-16T21:11:20.521Z,84.70
2023-05-16T21:13:47.904Z,84.56
2023-05-16T21:16:15.541Z,83.99
2023-05-16T21:18:42.857Z,84.59
2023-05-16T21:21:10.033Z,85.43
2023-05-16T21:23:37.321Z,85.75
2023-05-16T21:26:04.377Z,85.77
2023-05-16T21:28:32.789Z,86.56
2023-05-16T21:31:01.751Z,86.57
2023-05-16T21:33:28.832Z,86.70
2023-05-16T21:35:56.035Z,86.56
2023-05-16T21:38:23.030Z,86.58
2023-05-16T21:40:50.249Z,86.66
2023-05-16T21:43:17.258Z,86.63
2023-05-16T21:45:44.151Z,87.01
2023-05-16T21:48:11.299Z,87.34
2023-05-16T21:50:38.352Z,86.76
2023-05-16T21:53:05.478Z,87.87
2023-05-16T21:55:32.643Z,87.70
2023-05-16T21:57:59.777Z,85.84
2023-05-16T22:00:26.704Z,86.00
2023-05-16T22:02:55.152Z,86.19
2023-05-16T22:05:22.332Z,86.47
2023-05-16T22:07:49.212Z,86.77
2023-05-16T22:10:17.084Z,86.86
2023-05-16T22:12:44.160Z,86.65
2023-05-16T22:15:11.650Z,85.82
2023-05-16T22:17:38.651Z,86.15
2023-05-16T22:20:06.452Z,85.73
2023-05-16T22:22:33.371Z,86.26
2023-05-16T22:25:03.216Z,85.81
2023-05-16T22:27:30.283Z,85.64
2023-05-16T22:29:57.310Z,85.92
2023-05-16T22:32:24.724Z,86.21
2023-05-16T22:34:52.886Z,85.84
2023-05-16T22:37:19.884Z,86.10
2023-05-16T22:39:47.017Z,85.52
2023-05-16T22:42:14.100Z,85.34
2023-05-16T22:44:41.040Z,84.36
2023-05-16T22:47:08.026Z,85.62
2023-05-16T22:49:35.018Z,84.76
2023-05-16T22:52:01.926Z,84.95
2023-05-16T22:54:28.956Z,85.15
2023-05-16T22:56:56.315Z,85.02
2023-05-16T22:59:23.313Z,84.66
2023-05-16T23:01:50.343Z,84.13
2023-05-16T23:04:17.181Z,84.50
2023-05-16T23:06:44.093Z,84.52
2023-05-16T23:09:10.940Z,84.35
2023-05-16T23:11:37.918Z,84.65
2023-05-16T23:14:04.938Z,84.50
2023-05-16T23:16:31.750Z,84.39
2023-05-16T23:18:58.809Z,84.14
2023-05-16T23:21:25.836Z,82.79
2023-05-16T23:23:52.731Z,82.73
2023-05-16T23:26:19.693Z,82.65
2023-05-16T23:28:46.614Z,82.77
2023-05-16T23:31:13.688Z,82.91
2023-05-16T23:33:40.518Z,82.26
2023-05-16T23:36:07.673Z,80.84
2023-05-16T23:38:34.638Z,80.16
2023-05-16T23:41:01.655Z,80.49
2023-05-16T23:43:28.509Z,80.82
2023-05-16T23:45:55.464Z,81.77
2023-05-16T23:48:22.454Z,82.25
2023-05-16T23:50:49.408Z,82.40
2023-05-16T23:53:16.872Z,82.29
2023-05-16T23:55:44.215Z,82.51
2023-05-16T23:58:11.255Z,81.67
